Time;durP1;ratioP1;P1;durP2;ratioP2;P2;SDS_P1;SDS_P2;PMS_P1;PMS_P2;Temp;Humidity;BMP_temperature;BMP_pressure;BME280_temperature;BME280_humidity;BME280_pressure;Samples;Min_cycle;Max_cycle;Signal;HPM_P1;HPM_P2
2023/09/04 00:02:08;;;;;;;5.93;3.40;;;19.20;99.90;;;;;;5025066;28;45212;-50
2023/09/04 00:04:35;;;;;;;3.63;2.95;;;19.20;99.90;;;;;;5020362;28;48117;-50
2023/09/04 00:07:02;;;;;;;4.45;3.50;;;19.20;99.90;;;;;;5024365;28;45159;-50
2023/09/04 00:09:31;;;;;;;5.45;2.88;;;19.20;99.90;;;;;;5023968;28;45072;-50
2023/09/04 00:11:57;;;;;;;4.57;3.10;;;19.20;99.90;;;;;;5020528;28;45183;-50
2023/09/04 00:14:24;;;;;;;3.75;3.00;;;19.30;99.90;;;;;;5025458;28;46850;-50
2023/09/04 00:16:51;;;;;;;5.05;3.38;;;19.30;99.90;;;;;;5009700;28;45178;-51
2023/09/04 00:19:18;;;;;;;4.53;3.10;;;19.40;99.90;;;;;;5023579;28;45214;-50
2023/09/04 00:21:44;;;;;;;5.45;3.00;;;19.40;99.90;;;;;;5010664;28;45285;-51
2023/09/04 00:24:11;;;;;;;4.72;2.90;;;19.50;99.90;;;;;;5023332;28;47066;-50
2023/09/04 00:26:39;;;;;;;4.80;3.25;;;19.50;99.90;;;;;;5021896;28;45442;-50
2023/09/04 00:29:06;;;;;;;3.60;2.90;;;19.40;99.90;;;;;;5020533;28;45080;-50
2023/09/04 00:31:33;;;;;;;4.60;3.28;;;19.40;99.90;;;;;;5019929;28;45247;-51
2023/09/04 00:34:00;;;;;;;6.60;2.90;;;19.40;99.90;;;;;;5021540;28;46268;-50
2023/09/04 00:36:26;;;;;;;5.82;3.75;;;19.40;99.90;;;;;;5022506;28;45163;-50
2023/09/04 00:38:53;;;;;;;5.40;2.90;;;19.40;99.90;;;;;;5020742;28;45170;-51
2023/09/04 00:41:20;;;;;;;4.43;3.08;;;19.40;99.90;;;;;;5021091;28;45249;-51
2023/09/04 00:43:48;;;;;;;6.85;3.17;;;19.40;99.90;;;;;;5021954;28;45981;-50
2023/09/04 00:46:15;;;;;;;3.13;2.65;;;19.40;99.90;;;;;;5021947;28;45163;-50
2023/09/04 00:48:43;;;;;;;4.63;3.30;;;19.40;99.90;;;;;;5021737;28;45147;-51
2023/09/04 00:51:09;;;;;;;4.47;3.30;;;19.40;99.90;;;;;;5023757;28;45044;-50
2023/09/04 00:53:37;;;;;;;5.18;3.42;;;19.40;99.90;;;;;;5020958;28;45167;-51
2023/09/04 00:56:06;;;;;;;4.80;3.17;;;19.40;99.90;;;;;;5020793;28;45185;-50
2023/09/04 00:58:34;;;;;;;8.18;3.60;;;19.40;99.90;;;;;;5019704;28;45099;-50
2023/09/04 01:01:03;;;;;;;4.40;3.08;;;19.40;99.90;;;;;;5019657;28;45450;-51
2023/09/04 01:03:31;;;;;;;5.55;2.90;;;19.40;99.90;;;;;;5021785;28;45490;-51
2023/09/04 01:05:58;;;;;;;5.15;3.03;;;19.40;99.90;;;;;;5010237;28;45138;-50
2023/09/04 01:08:26;;;;;;;5.22;3.38;;;19.40;99.90;;;;;;5005560;28;45158;-51
2023/09/04 01:11:02;;;;;;;4.00;3.10;;;19.40;99.90;;;;;;5021546;28;45239;-51
2023/09/04 01:13:37;;;;;;;5.45;3.00;;;19.30;99.90;;;;;;5020942;28;45426;-50
2023/09/04 01:16:06;;;;;;;4.97;3.10;;;19.30;99.90;;;;;;5016459;28;45860;-50
2023/09/04 01:18:34;;;;;;;4.20;3.17;;;19.30;99.90;;;;;;5018951;28;44633;-51
2023/09/04 01:21:02;;;;;;;4.00;2.92;;;19.20;99.90;;;;;;5019762;28;45326;-51
2023/09/04 01:23:29;;;;;;;5.38;3.33;;;19.20;99.90;;;;;;5022062;28;47662;-51
2023/09/04 01:26:03;;;;;;;5.40;2.72;;;19.20;99.90;;;;;;5023192;28;44647;-51
2023/09/04 01:28:39;;;;;;;3.47;2.88;;;19.10;99.90;;;;;;5014850;28;45253;-51
2023/09/04 01:31:14;;;;;;;4.05;2.80;;;19.10;99.90;;;;;;5020113;28;45519;-51
2023/09/04 01:33:47;;;;;;;4.00;2.70;;;19.10;99.90;;;;;;5017482;28;45230;-51
2023/09/04 01:36:17;;;;;;;5.78;3.08;;;19.00;99.90;;;;;;5020687;28;45566;-51
2023/09/04 01:38:44;;;;;;;6.45;3.00;;;19.00;99.90;;;;;;5023323;28;44651;-51
2023/09/04 01:41:11;;;;;;;5.50;2.83;;;19.00;99.90;;;;;;5019841;28;44690;-51
2023/09/04 01:43:38;;;;;;;3.67;2.83;;;19.10;99.90;;;;;;5019912;28;45249;-51
2023/09/04 01:46:05;;;;;;;4.70;3.10;;;19.10;99.90;;;;;;5022057;28;45104;-51
2023/09/04 01:48:32;;;;;;;3.38;2.80;;;19.00;99.90;;;;;;5016023;28;45269;-51
2023/09/04 01:51:00;;;;;;;3.63;3.03;;;19.00;99.90;;;;;;5022552;28;45193;-51
2023/09/04 01:53:28;;;;;;;3.42;2.83;;;19.00;99.90;;;;;;5021798;28;45133;-50
2023/09/04 01:55:55;;;;;;;4.40;2.75;;;19.00;99.90;;;;;;5019060;28;45096;-51
2023/09/04 01:58:21;;;;;;;3.60;3.10;;;19.00;99.90;;;;;;5020849;28;45090;-51
2023/09/04 02:00:48;;;;;;;5.53;3.17;;;19.00;99.90;;;;;;5021423;28;45107;-51
2023/09/04 02:03:15;;;;;;;4.47;2.97;;;19.00;99.90;;;;;;5017382;28;47983;-51
2023/09/04 02:05:42;;;;;;;3.92;3.08;;;18.90;99.90;;;;;;5020744;28;45189;-51
2023/09/04 02:08:09;;;;;;;6.85;3.05;;;18.90;99.90;;;;;;5020744;28;45287;-51
2023/09/04 02:10:37;;;;;;;3.90;3.08;;;18.90;99.90;;;;;;5022638;28;45241;-51
2023/09/04 02:13:04;;;;;;;3.10;2.63;;;18.90;99.90;;;;;;5018142;28;46378;-50
2023/09/04 02:15:32;;;;;;;4.05;2.72;;;18.90;99.90;;;;;;5021369;28;45108;-51
2023/09/04 02:18:01;;;;;;;4.13;3.08;;;18.90;99.90;;;;;;5019716;28;45084;-50
2023/09/04 02:20:28;;;;;;;4.43;2.92;;;18.90;99.90;;;;;;5020361;28;45404;-51
2023/09/04 02:22:55;;;;;;;4.53;3.17;;;18.80;99.90;;;;;;5020509;28;45199;-51
2023/09/04 02:25:22;;;;;;;5.63;3.17;;;18.80;99.90;;;;;;5023067;28;45450;-51
2023/09/04 02:27:50;;;;;;;3.78;3.17;;;18.80;99.90;;;;;;5019161;28;45206;-51
2023/09/04 02:30:17;;;;;;;3.60;3.05;;;18.70;99.90;;;;;;5018550;28;45042;-51
2023/09/04 02:32:44;;;;;;;3.03;2.65;;;18.80;99.90;;;;;;5013212;28;47927;-51
2023/09/04 02:35:10;;;;;;;6.22;2.92;;;18.70;99.90;;;;;;5020015;28;45295;-51
2023/09/04 02:37:37;;;;;;;3.90;2.80;;;18.70;99.90;;;;;;5021603;28;45115;-51
2023/09/04 02:40:06;;;;;;;4.43;2.70;;;18.80;99.90;;;;;;5021396;28;45490;-51
2023/09/04 02:42:33;;;;;;;6.63;2.60;;;18.80;99.90;;;;;;5017857;28;47745;-51
2023/09/04 02:45:01;;;;;;;5.40;2.97;;;18.80;99.90;;;;;;5021338;28;45201;-51
2023/09/04 02:47:27;;;;;;;3.00;2.42;;;18.80;99.90;;;;;;5012982;28;45328;-51
2023/09/04 02:49:55;;;;;;;4.53;3.03;;;18.80;99.90;;;;;;5019437;28;45262;-51
2023/09/04 02:52:22;;;;;;;4.38;3.00;;;18.70;99.90;;;;;;5020724;28;46287;-51
2023/09/04 02:54:48;;;;;;;5.38;3.13;;;18.70;99.90;;;;;;5021877;28;45162;-51
2023/09/04 02:57:15;;;;;;;4.60;3.28;;;18.80;99.90;;;;;;5020503;28;44640;-51
2023/09/04 02:59:42;;;;;;;5.82;3.10;;;18.80;99.90;;;;;;5014458;28;45294;-51
2023/09/04 03:02:10;;;;;;;4.15;3.25;;;18.70;99.90;;;;;;5014227;28;46389;-51
2023/09/04 03:04:37;;;;;;;4.50;2.90;;;18.80;99.90;;;;;;5017685;28;45158;-51
2023/09/04 03:07:04;;;;;;;6.75;3.75;;;18.80;99.90;;;;;;5023047;28;44631;-51
2023/09/04 03:09:31;;;;;;;3.60;2.85;;;18.70;99.90;;;;;;5022729;28;45108;-51
2023/09/04 03:11:58;;;;;;;4.63;2.95;;;18.70;99.90;;;;;;5017071;28;47584;-51
2023/09/04 03:14:25;;;;;;;5.50;3.55;;;18.70;99.90;;;;;;5021883;28;45100;-51
2023/09/04 03:16:52;;;;;;;5.68;3.10;;;18.80;99.90;;;;;;5017849;28;45159;-51
2023/09/04 03:19:20;;;;;;;5.03;3.17;;;18.70;99.90;;;;;;5018662;28;45271;-51
2023/09/04 03:21:47;;;;;;;4.78;3.08;;;18.70;99.90;;;;;;5018952;28;45163;-51
2023/09/04 03:24:15;;;;;;;3.40;3.05;;;18.60;99.90;;;;;;5020789;28;45179;-51
2023/09/04 03:26:41;;;;;;;5.38;3.13;;;18.60;99.90;;;;;;5011311;28;44667;-51
2023/09/04 03:29:08;;;;;;;4.20;3.00;;;18.70;99.90;;;;;;5010402;28;45212;-50
2023/09/04 03:31:35;;;;;;;5.55;3.35;;;18.60;99.90;;;;;;5020062;28;45135;-50
2023/09/04 03:34:02;;;;;;;6.70;3.20;;;18.60;99.90;;;;;;5016226;28;45385;-51
2023/09/04 03:36:30;;;;;;;9.05;3.70;;;18.60;99.90;;;;;;5020108;28;45163;-51
2023/09/04 03:38:56;;;;;;;4.57;3.30;;;18.60;99.90;;;;;;5022618;28;45197;-51
2023/09/04 03:41:24;;;;;;;10.48;3.55;;;18.60;99.90;;;;;;5021915;28;46197;-51
2023/09/04 03:43:51;;;;;;;3.05;2.75;;;18.60;99.90;;;;;;5020298;28;45404;-51
2023/09/04 03:46:17;;;;;;;4.43;3.30;;;18.60;99.90;;;;;;5022932;28;44572;-51
2023/09/04 03:48:43;;;;;;;4.95;3.15;;;18.60;99.90;;;;;;5019171;28;45258;-51
2023/09/04 03:51:10;;;;;;;4.25;2.67;;;18.60;99.90;;;;;;5023327;28;47097;-51
2023/09/04 03:53:38;;;;;;;4.57;2.97;;;18.60;99.90;;;;;;5020508;28;45798;-51
2023/09/04 03:56:06;;;;;;;5.35;3.05;;;18.60;99.90;;;;;;5020437;28;45157;-51
2023/09/04 03:58:33;;;;;;;9.35;3.35;;;18.60;99.90;;;;;;5025030;28;45069;-51
2023/09/04 04:01:00;;;;;;;5.85;3.20;;;18.60;99.90;;;;;;5023002;28;46353;-51
2023/09/04 04:03:27;;;;;;;7.50;3.33;;;18.70;99.90;;;;;;5019104;28;45069;-51
2023/09/04 04:05:53;;;;;;;3.50;2.95;;;18.70;99.90;;;;;;5017343;28;44679;-51
2023/09/04 04:08:20;;;;;;;5.20;3.05;;;18.60;99.90;;;;;;5016716;28;45014;-51
2023/09/04 04:10:48;;;;;;;4.13;3.00;;;18.60;99.90;;;;;;5023419;28;45985;-51
2023/09/04 04:13:15;;;;;;;4.65;2.92;;;18.70;99.90;;;;;;5015062;28;45031;-51
2023/09/04 04:15:42;;;;;;;4.10;3.13;;;18.60;99.90;;;;;;5022543;28;45036;-51
2023/09/04 04:18:09;;;;;;;6.35;3.00;;;18.70;99.90;;;;;;5022955;28;45243;-51
2023/09/04 04:20:36;;;;;;;6.47;3.03;;;18.70;99.90;;;;;;5017229;28;48246;-51
2023/09/04 04:23:04;;;;;;;7.25;3.25;;;18.80;99.90;;;;;;5023319;28;45134;-52
2023/09/04 04:25:31;;;;;;;3.55;2.65;;;18.70;99.90;;;;;;5023203;28;45141;-52
2023/09/04 04:27:59;;;;;;;6.68;3.20;;;18.70;99.90;;;;;;5018235;28;45417;-52
2023/09/04 04:30:26;;;;;;;4.75;3.10;;;18.60;99.90;;;;;;5018977;28;47130;-52
2023/09/04 04:32:52;;;;;;;4.28;3.15;;;18.50;99.90;;;;;;5018486;28;45373;-52
2023/09/04 04:35:19;;;;;;;4.10;2.80;;;18.40;99.90;;;;;;5024651;28;45118;-51
2023/09/04 04:37:46;;;;;;;7.03;2.75;;;18.30;99.90;;;;;;5022654;28;45234;-51
2023/09/04 04:40:13;;;;;;;3.78;2.85;;;18.30;99.90;;;;;;5019466;28;45142;-51
2023/09/04 04:42:41;;;;;;;6.15;2.92;;;18.30;99.90;;;;;;5021179;28;45087;-51
2023/09/04 04:45:09;;;;;;;5.55;3.15;;;18.30;99.90;;;;;;5023529;28;45084;-51
2023/09/04 04:47:36;;;;;;;6.60;3.13;;;18.30;99.90;;;;;;5020457;28;45168;-51
2023/09/04 04:50:03;;;;;;;8.18;3.55;;;18.40;99.90;;;;;;5023271;28;46053;-51
2023/09/04 04:52:30;;;;;;;3.92;3.05;;;18.40;99.90;;;;;;5023206;28;45155;-51
2023/09/04 04:54:57;;;;;;;5.18;3.60;;;18.50;99.90;;;;;;5024261;28;44743;-51
2023/09/04 04:57:24;;;;;;;3.70;2.75;;;18.50;99.90;;;;;;5018761;28;45083;-52
2023/09/04 04:59:51;;;;;;;5.05;3.25;;;18.60;99.90;;;;;;5022838;28;45149;-52
2023/09/04 05:02:20;;;;;;;4.63;3.28;;;18.60;99.90;;;;;;5019208;28;45146;-52
2023/09/04 05:04:48;;;;;;;4.72;3.33;;;18.70;99.90;;;;;;5017231;28;44689;-52
2023/09/04 05:07:15;;;;;;;5.55;3.55;;;18.70;99.90;;;;;;5019991;28;45115;-53
2023/09/04 05:09:42;;;;;;;9.07;3.33;;;18.70;99.90;;;;;;5024693;28;47485;-52
2023/09/04 05:12:09;;;;;;;3.88;2.90;;;18.70;99.90;;;;;;5022606;28;44594;-52
2023/09/04 05:14:36;;;;;;;4.97;2.58;;;18.70;99.90;;;;;;5021033;28;45123;-52
2023/09/04 05:17:02;;;;;;;3.42;2.65;;;19.00;99.90;;;;;;5020774;28;45242;-52
2023/09/04 05:19:31;;;;;;;4.45;2.40;;;19.40;99.90;;;;;;5021271;28;46527;-51
2023/09/04 05:21:57;;;;;;;3.42;2.90;;;19.60;99.90;;;;;;5022272;28;45020;-52
2023/09/04 05:24:24;;;;;;;3.70;2.42;;;19.70;99.80;;;;;;5020953;28;45049;-52
2023/09/04 05:26:51;;;;;;;5.45;2.50;;;18.80;99.90;;;;;;5019760;28;45375;-52
2023/09/04 05:29:18;;;;;;;5.82;2.72;;;19.30;99.90;;;;;;5017688;28;45119;-52
2023/09/04 05:31:45;;;;;;;2.90;2.42;;;18.60;99.90;;;;;;5011769;28;45249;-52
2023/09/04 05:34:11;;;;;;;5.30;3.38;;;18.90;99.90;;;;;;5004472;28;44699;-52
2023/09/04 05:36:39;;;;;;;6.70;3.03;;;18.90;99.90;;;;;;5009308;28;45152;-52
2023/09/04 05:39:06;;;;;;;5.72;2.92;;;19.00;99.90;;;;;;5023200;28;45278;-51
2023/09/04 05:41:33;;;;;;;5.45;2.60;;;17.90;99.90;;;;;;5020526;28;46125;-52
2023/09/04 05:44:00;;;;;;;7.47;3.10;;;18.50;99.90;;;;;;5023693;28;45284;-52
2023/09/04 05:46:26;;;;;;;2.78;2.45;;;18.70;99.90;;;;;;5020340;28;45140;-51
2023/09/04 05:48:53;;;;;;;3.25;2.20;;;18.90;99.90;;;;;;5020487;28;45299;-51
2023/09/04 05:51:20;;;;;;;4.95;3.63;;;19.10;99.90;;;;;;5019458;28;45802;-51
2023/09/04 05:53:48;;;;;;;6.75;3.28;;;16.80;99.90;;;;;;5014124;28;45163;-52
2023/09/04 05:56:15;;;;;;;5.07;3.25;;;16.00;99.90;;;;;;5017744;28;45487;-53
2023/09/04 05:58:46;;;;;;;7.13;3.67;;;15.80;99.90;;;;;;5014057;28;46180;-52
2023/09/04 06:01:13;;;;;;;6.38;3.67;;;15.80;99.90;;;;;;5017886;28;46090;-52
2023/09/04 06:03:40;;;;;;;8.48;3.40;;;15.80;99.90;;;;;;5019277;28;45092;-52
2023/09/04 06:06:07;;;;;;;5.00;3.10;;;15.80;99.90;;;;;;5015198;28;45210;-52
2023/09/04 06:08:34;;;;;;;7.35;3.20;;;15.80;99.90;;;;;;5019815;28;45136;-52
2023/09/04 06:11:03;;;;;;;6.38;3.78;;;15.70;99.90;;;;;;5019488;28;45231;-51
2023/09/04 06:13:30;;;;;;;8.20;4.75;;;15.70;99.90;;;;;;5015892;28;45111;-51
2023/09/04 06:15:57;;;;;;;5.00;3.53;;;15.80;99.90;;;;;;5012595;28;45176;-52
2023/09/04 06:18:24;;;;;;;4.80;3.63;;;15.70;99.90;;;;;;5019586;28;46233;-52
2023/09/04 06:20:51;;;;;;;7.43;3.88;;;15.70;99.90;;;;;;5018542;28;45165;-51
2023/09/04 06:23:19;;;;;;;8.35;4.00;;;15.70;99.90;;;;;;5023107;28;45243;-51
2023/09/04 06:25:46;;;;;;;5.45;3.88;;;15.70;99.90;;;;;;5021708;28;45417;-51
2023/09/04 06:28:14;;;;;;;6.10;4.05;;;15.80;99.90;;;;;;5013219;28;46200;-51
2023/09/04 06:30:41;;;;;;;6.20;3.78;;;15.90;99.90;;;;;;5004023;28;45159;-51
2023/09/04 06:33:08;;;;;;;6.60;3.72;;;15.90;99.90;;;;;;5013417;28;45134;-51
2023/09/04 06:35:35;;;;;;;5.93;4.00;;;16.00;99.90;;;;;;5022652;28;45347;-51
2023/09/04 06:38:02;;;;;;;7.45;4.07;;;16.00;99.90;;;;;;5021325;28;47308;-51
2023/09/04 06:40:29;;;;;;;4.93;3.67;;;16.10;99.90;;;;;;5022511;28;45156;-51
2023/09/04 06:42:55;;;;;;;4.28;2.88;;;16.70;99.90;;;;;;5020041;28;45193;-52
2023/09/04 06:45:24;;;;;;;3.78;2.30;;;17.70;99.90;;;;;;5020802;28;45139;-52
2023/09/04 06:47:50;;;;;;;3.50;2.08;;;19.90;99.90;;;;;;5019460;28;46039;-52
2023/09/04 06:50:17;;;;;;;4.05;2.00;;;20.50;99.90;;;;;;5021913;28;45061;-52
2023/09/04 06:52:44;;;;;;;7.72;2.30;;;20.90;99.90;;;;;;5020478;28;45242;-52
2023/09/04 06:55:11;;;;;;;3.65;2.33;;;21.00;99.90;;;;;;5022300;28;45455;-52
2023/09/04 06:57:38;;;;;;;2.83;2.15;;;21.10;99.90;;;;;;5020051;28;46255;-52
2023/09/04 07:00:08;;;;;;;2.30;1.70;;;21.20;99.80;;;;;;5020383;28;45109;-52
2023/09/04 07:02:37;;;;;;;4.80;1.80;;;21.40;99.70;;;;;;5019490;28;45088;-52
2023/09/04 07:05:04;;;;;;;2.53;1.67;;;21.50;99.20;;;;;;5020786;28;45408;-52
2023/09/04 07:07:35;;;;;;;3.08;1.65;;;21.70;98.80;;;;;;5022902;28;47400;-52
2023/09/04 07:10:02;;;;;;;2.30;1.70;;;21.70;98.40;;;;;;5019122;28;45108;-52
2023/09/04 07:12:30;;;;;;;2.20;1.67;;;21.80;98.20;;;;;;5025981;28;45213;-52
2023/09/04 07:14:57;;;;;;;2.53;1.75;;;21.80;98.00;;;;;;5023235;28;45210;-52
2023/09/04 07:17:24;;;;;;;3.45;1.90;;;21.90;97.70;;;;;;5015841;28;44931;-52
2023/09/04 07:19:52;;;;;;;4.80;1.88;;;21.90;98.00;;;;;;5016823;28;45187;-52
2023/09/04 07:22:19;;;;;;;2.70;1.92;;;21.90;97.70;;;;;;5020584;28;44660;-52
2023/09/04 07:24:46;;;;;;;3.58;1.42;;;21.90;97.70;;;;;;5018258;28;44782;-52
2023/09/04 07:27:13;;;;;;;2.67;1.92;;;21.90;97.60;;;;;;5022186;28;46224;-52
2023/09/04 07:29:39;;;;;;;3.40;1.50;;;21.90;98.00;;;;;;5013045;28;45234;-52
2023/09/04 07:32:06;;;;;;;2.33;1.70;;;21.90;97.40;;;;;;5020728;28;45199;-52
2023/09/04 07:34:33;;;;;;;2.38;1.67;;;21.90;96.10;;;;;;5016265;28;45152;-52
2023/09/04 07:37:02;;;;;;;7.25;1.80;;;21.80;97.20;;;;;;5008399;28;48079;-52
2023/09/04 07:39:29;;;;;;;2.92;1.65;;;21.90;97.60;;;;;;5023479;28;45119;-53
2023/09/04 07:41:56;;;;;;;4.93;1.63;;;21.90;97.70;;;;;;5023999;28;45207;-53
2023/09/04 07:44:23;;;;;;;5.95;1.65;;;21.90;97.50;;;;;;5025727;28;45166;-53
2023/09/04 07:46:50;;;;;;;1.92;1.40;;;22.00;97.40;;;;;;5023970;28;45226;-52
2023/09/04 07:49:17;;;;;;;3.08;1.42;;;22.00;97.40;;;;;;5023192;28;45175;-52
2023/09/04 07:51:43;;;;;;;1.63;1.23;;;22.00;97.20;;;;;;5006935;28;45029;-52
2023/09/04 07:54:12;;;;;;;5.38;2.00;;;22.00;97.70;;;;;;5011769;28;45053;-52
2023/09/04 07:56:39;;;;;;;4.57;1.48;;;22.00;97.20;;;;;;5023951;28;46539;-52
2023/09/04 07:59:06;;;;;;;2.33;1.35;;;22.00;97.30;;;;;;5021767;28;45191;-52
2023/09/04 08:01:32;;;;;;;1.85;1.30;;;22.10;97.20;;;;;;5023002;28;44770;-52
2023/09/04 08:04:01;;;;;;;1.67;1.23;;;22.10;97.20;;;;;;5022199;28;45148;-52
2023/09/04 08:06:28;;;;;;;2.78;1.65;;;22.00;97.50;;;;;;5013019;28;46657;-52
2023/09/04 08:08:55;;;;;;;2.85;1.33;;;22.10;97.50;;;;;;5010830;28;45257;-52
2023/09/04 08:11:23;;;;;;;3.28;1.60;;;22.10;97.40;;;;;;5023674;28;45288;-52
2023/09/04 08:13:50;;;;;;;3.75;1.52;;;22.10;97.10;;;;;;5014978;28;45099;-52
2023/09/04 08:16:17;;;;;;;3.10;1.13;;;22.10;97.40;;;;;;5020099;28;45231;-52
2023/09/04 08:18:44;;;;;;;1.35;1.20;;;22.10;97.40;;;;;;5022877;28;45449;-52
2023/09/04 08:21:11;;;;;;;3.30;1.60;;;22.10;97.30;;;;;;5023224;28;45243;-52
2023/09/04 08:23:37;;;;;;;2.42;1.20;;;22.10;96.80;;;;;;5018747;28;45236;-52
2023/09/04 08:26:06;;;;;;;2.35;1.38;;;22.10;96.80;;;;;;5023899;28;46172;-52
2023/09/04 08:28:34;;;;;;;41.17;2.97;;;22.10;96.60;;;;;;5022042;28;45143;-52
2023/09/04 08:31:01;;;;;;;10.98;2.10;;;22.20;97.00;;;;;;5024799;28;45225;-52
2023/09/04 08:33:28;;;;;;;7.32;2.10;;;22.10;96.90;;;;;;5024424;28;45255;-52
2023/09/04 08:35:55;;;;;;;4.43;1.80;;;22.20;96.70;;;;;;5022359;28;46775;-52
2023/09/04 08:38:21;;;;;;;3.17;1.67;;;22.10;96.30;;;;;;5009773;28;45082;-53
2023/09/04 08:40:48;;;;;;;3.55;1.40;;;22.10;96.40;;;;;;5018126;28;45183;-52
2023/09/04 08:43:17;;;;;;;1.88;1.10;;;22.20;96.90;;;;;;5017551;28;45484;-52
2023/09/04 08:45:54;;;;;;;4.00;1.50;;;22.20;96.60;;;;;;5006182;28;46001;-52
2023/09/04 08:48:23;;;;;;;3.95;1.40;;;22.20;96.60;;;;;;5009321;28;45319;-52
2023/09/04 08:50:50;;;;;;;4.82;1.67;;;22.20;96.60;;;;;;5011532;28;45624;-52
2023/09/04 08:53:17;;;;;;;2.72;1.60;;;22.20;96.60;;;;;;5024599;28;45112;-52
2023/09/04 08:55:44;;;;;;;2.13;1.33;;;22.20;96.50;;;;;;5023254;28;46338;-52
2023/09/04 08:58:11;;;;;;;3.08;1.55;;;22.20;96.60;;;;;;5016545;28;45188;-52
2023/09/04 09:00:38;;;;;;;2.03;1.23;;;22.30;96.50;;;;;;5017293;28;45422;-52
2023/09/04 09:03:07;;;;;;;2.05;1.45;;;22.20;96.70;;;;;;5019658;28;45245;-52
2023/09/04 09:05:34;;;;;;;1.73;1.00;;;22.30;96.50;;;;;;5012571;28;45596;-52
2023/09/04 09:08:02;;;;;;;3.65;1.50;;;22.30;96.90;;;;;;5017125;28;45138;-52
2023/09/04 09:10:29;;;;;;;2.72;1.20;;;22.30;96.50;;;;;;5022119;28;45277;-52
2023/09/04 09:12:56;;;;;;;2.95;1.40;;;22.30;96.50;;;;;;5018587;28;44707;-52
2023/09/04 09:15:23;;;;;;;2.67;1.60;;;22.20;96.50;;;;;;5023269;28;45306;-53
2023/09/04 09:17:54;;;;;;;3.47;1.50;;;22.30;96.70;;;;;;5021661;28;45363;-52
2023/09/04 09:20:33;;;;;;;1.77;1.48;;;22.30;96.50;;;;;;5017912;28;45252;-52
2023/09/04 09:23:00;;;;;;;1.60;1.23;;;22.30;96.50;;;;;;5016359;28;45234;-52
2023/09/04 09:25:28;;;;;;;2.85;1.38;;;22.30;96.20;;;;;;5022644;28;46225;-52
2023/09/04 09:28:00;;;;;;;2.45;1.80;;;22.40;96.20;;;;;;5021810;28;45225;-52
2023/09/04 09:30:32;;;;;;;1.60;1.33;;;22.30;96.10;;;;;;5019964;28;45114;-52
2023/09/04 09:32:59;;;;;;;2.33;1.50;;;22.30;96.10;;;;;;5018172;28;45195;-52
2023/09/04 09:35:30;;;;;;;2.22;1.45;;;22.30;95.90;;;;;;5021973;28;46116;-52
2023/09/04 09:37:59;;;;;;;2.88;1.60;;;22.30;95.80;;;;;;5022920;28;45089;-52
2023/09/04 09:40:26;;;;;;;4.28;1.67;;;22.30;95.70;;;;;;5021989;28;45195;-52
2023/09/04 09:42:53;;;;;;;4.35;1.67;;;22.30;96.00;;;;;;5022521;28;45401;-52
2023/09/04 09:45:20;;;;;;;3.80;1.45;;;22.40;95.70;;;;;;5020715;28;46258;-52
2023/09/04 09:47:47;;;;;;;4.25;1.42;;;22.40;95.80;;;;;;5013755;28;45198;-52
2023/09/04 09:50:16;;;;;;;2.25;1.50;;;22.30;95.50;;;;;;5015823;28;44793;-52
2023/09/04 09:52:58;;;;;;;3.47;1.50;;;22.30;95.40;;;;;;5014191;28;45049;-52
2023/09/04 09:55:26;;;;;;;2.85;1.60;;;22.40;95.60;;;;;;5016567;28;45412;-52
2023/09/04 09:57:53;;;;;;;2.17;1.80;;;22.30;95.60;;;;;;5020539;28;45793;-52
2023/09/04 10:00:21;;;;;;;1.88;1.60;;;22.40;95.30;;;;;;5021991;28;45136;-52
2023/09/04 10:02:48;;;;;;;1.70;1.35;;;22.40;95.10;;;;;;5023228;28;45214;-52
2023/09/04 10:05:15;;;;;;;2.70;1.85;;;22.40;95.40;;;;;;5020898;28;47425;-52
2023/09/04 10:07:47;;;;;;;5.53;1.65;;;22.50;95.20;;;;;;5022237;28;45208;-52
2023/09/04 10:10:16;;;;;;;1.83;1.40;;;22.50;95.00;;;;;;5024396;28;45091;-52
2023/09/04 10:12:48;;;;;;;2.72;1.70;;;22.50;95.00;;;;;;5021534;28;45041;-52
2023/09/04 10:15:21;;;;;;;2.75;1.35;;;22.40;94.90;;;;;;5015365;28;47638;-53
2023/09/04 10:17:56;;;;;;;1.48;1.35;;;22.40;94.90;;;;;;5018423;28;45291;-52
2023/09/04 10:20:23;;;;;;;3.25;1.77;;;22.40;94.90;;;;;;5023228;28;45171;-52
2023/09/04 10:22:57;;;;;;;2.67;1.55;;;22.40;95.30;;;;;;5020963;28;45165;-52
2023/09/04 10:25:32;;;;;;;2.47;1.67;;;22.40;95.30;;;;;;5012915;28;46226;-52
2023/09/04 10:28:05;;;;;;;2.15;1.70;;;22.40;94.90;;;;;;5014522;28;45167;-52
2023/09/04 10:30:36;;;;;;;1.83;1.40;;;22.40;95.00;;;;;;5019460;28;45249;-52
2023/09/04 10:33:03;;;;;;;3.50;1.52;;;22.50;95.10;;;;;;5020803;28;44747;-52
2023/09/04 10:35:30;;;;;;;2.75;1.45;;;22.40;95.00;;;;;;5019057;28;45258;-52
2023/09/04 10:37:58;;;;;;;2.22;1.50;;;22.50;95.00;;;;;;5017027;28;45124;-52
2023/09/04 10:40:28;;;;;;;2.63;1.40;;;22.40;94.90;;;;;;5018138;28;45206;-52
2023/09/04 10:42:56;;;;;;;2.75;1.70;;;22.40;95.20;;;;;;5019734;28;45033;-52
2023/09/04 10:45:23;;;;;;;4.63;1.70;;;22.40;97.20;;;;;;5015200;28;47242;-51
2023/09/04 10:47:52;;;;;;;5.32;1.73;;;22.50;97.40;;;;;;5016852;28;45150;-51
2023/09/04 10:50:30;;;;;;;4.15;1.55;;;22.40;96.90;;;;;;5022772;28;45119;-51
2023/09/04 10:52:59;;;;;;;2.58;1.70;;;22.30;97.80;;;;;;5018586;28;45391;-51
2023/09/04 10:55:27;;;;;;;1.55;1.40;;;22.30;96.80;;;;;;5011421;28;45175;-51
2023/09/04 10:57:55;;;;;;;4.20;1.60;;;22.20;98.50;;;;;;5022105;28;45222;-51
2023/09/04 11:00:33;;;;;;;3.25;1.63;;;22.20;97.60;;;;;;5021080;28;45202;-51
2023/09/04 11:03:14;;;;;;;4.65;1.75;;;22.30;98.00;;;;;;5021139;28;45397;-51
2023/09/04 11:06:09;;;;;;;4.00;1.55;;;22.30;96.70;;;;;;5019114;28;46498;-51
2023/09/04 11:08:38;;;;;;;3.30;1.33;;;22.30;96.40;;;;;;5015486;28;45255;-51
2023/09/04 11:11:08;;;;;;;3.33;1.60;;;22.30;96.90;;;;;;5020521;28;45231;-51
2023/09/04 11:13:37;;;;;;;1.98;1.42;;;22.30;97.80;;;;;;5019535;28;45102;-51
2023/09/04 11:16:06;;;;;;;3.67;1.52;;;22.20;97.90;;;;;;5021590;28;45205;-51
2023/09/04 11:18:36;;;;;;;3.28;1.60;;;22.20;97.90;;;;;;5010485;28;45234;-51
2023/09/04 11:21:04;;;;;;;2.40;1.60;;;22.20;97.20;;;;;;5016449;28;45126;-51
2023/09/04 11:23:33;;;;;;;2.20;1.33;;;22.30;97.20;;;;;;5003349;28;45251;-51
2023/09/04 11:26:02;;;;;;;2.35;1.58;;;22.30;97.90;;;;;;5011992;28;45489;-51
2023/09/04 11:28:30;;;;;;;3.20;1.50;;;22.20;97.70;;;;;;5021721;28;45085;-52
2023/09/04 11:30:58;;;;;;;2.00;1.48;;;22.30;98.50;;;;;;5005679;28;45201;-52
2023/09/04 11:33:25;;;;;;;5.82;1.67;;;22.20;94.90;;;;;;5004451;28;45344;-52
2023/09/04 11:35:59;;;;;;;1.67;1.58;;;22.20;93.00;;;;;;5009742;28;47903;-52
2023/09/04 11:38:28;;;;;;;4.78;1.73;;;22.10;95.40;;;;;;5014967;28;45252;-52
2023/09/04 11:40:55;;;;;;;1.80;1.40;;;22.00;95.90;;;;;;5012501;28;45339;-52
2023/09/04 11:43:23;;;;;;;1.83;1.45;;;21.90;97.80;;;;;;5016875;28;44739;-52
2023/09/04 11:45:55;;;;;;;2.28;1.85;;;21.80;97.70;;;;;;5013877;28;47071;-52
2023/09/04 11:48:22;;;;;;;2.13;1.67;;;21.80;98.70;;;;;;5016556;28;45308;-52
2023/09/04 11:50:49;;;;;;;1.83;1.27;;;21.80;98.70;;;;;;5002054;28;45127;-51
2023/09/04 11:53:16;;;;;;;2.47;1.63;;;21.80;99.30;;;;;;5018580;28;45148;-51
2023/09/04 11:55:43;;;;;;;2.40;1.90;;;21.70;99.90;;;;;;5023400;28;46213;-52
2023/09/04 11:58:11;;;;;;;2.25;1.65;;;21.70;99.90;;;;;;5023387;28;45154;-52
2023/09/04 12:00:38;;;;;;;1.83;1.30;;;21.70;99.90;;;;;;5023506;28;45203;-52
2023/09/04 12:03:06;;;;;;;2.38;1.38;;;21.70;99.90;;;;;;5024136;28;45140;-52
2023/09/04 12:05:33;;;;;;;1.40;1.30;;;21.70;99.90;;;;;;5017535;28;47942;-52
2023/09/04 12:08:00;;;;;;;3.47;1.63;;;21.70;99.90;;;;;;5018715;28;45207;-51
2023/09/04 12:10:27;;;;;;;2.00;1.40;;;21.80;99.90;;;;;;5021508;28;45207;-51
2023/09/04 12:12:54;;;;;;;1.88;1.70;;;21.70;99.90;;;;;;5014937;28;45125;-52
2023/09/04 12:15:27;;;;;;;2.00;1.35;;;21.70;99.90;;;;;;5015335;28;47008;-52
2023/09/04 12:17:54;;;;;;;2.08;1.50;;;21.70;99.90;;;;;;5019032;28;45236;-52
2023/09/04 12:20:22;;;;;;;2.13;1.55;;;21.70;99.90;;;;;;5021819;28;45534;-52
2023/09/04 12:22:56;;;;;;;2.78;1.60;;;21.70;99.90;;;;;;5012420;28;45117;-52
2023/09/04 12:25:25;;;;;;;1.92;1.50;;;21.80;99.90;;;;;;5017093;28;46187;-52
2023/09/04 12:27:52;;;;;;;1.92;1.50;;;21.70;99.90;;;;;;5017772;28;45299;-52
2023/09/04 12:30:22;;;;;;;1.45;1.33;;;21.70;99.90;;;;;;5020080;28;45205;-52
2023/09/04 12:32:49;;;;;;;3.08;1.25;;;21.70;99.90;;;;;;5016633;28;45170;-51
2023/09/04 12:35:19;;;;;;;1.55;1.45;;;21.70;99.90;;;;;;5024879;28;45201;-52
2023/09/04 12:37:47;;;;;;;1.55;1.30;;;21.70;99.90;;;;;;5013292;28;45120;-51
2023/09/04 12:40:14;;;;;;;1.88;1.30;;;21.80;99.90;;;;;;5021302;28;45091;-51
2023/09/04 12:42:40;;;;;;;1.88;1.52;;;21.80;99.90;;;;;;5019165;28;45263;-52
2023/09/04 12:45:09;;;;;;;3.13;1.58;;;21.80;99.90;;;;;;5022858;28;46402;-52
2023/09/04 12:47:35;;;;;;;2.35;1.48;;;21.80;99.90;;;;;;5006973;28;45243;-52
2023/09/04 12:50:02;;;;;;;1.75;1.58;;;21.70;99.90;;;;;;5021433;28;45049;-52